createdAt,value
2023-02-22T00:00:19.961Z,101809.47
2023-02-22T00:01:47.504Z,101798.28
2023-02-22T00:02:51.259Z,101809.16
2023-02-22T00:03:53.543Z,101810.22
2023-02-22T00:04:55.326Z,101807.66
2023-02-22T00:05:59.792Z,101817.56
2023-02-22T00:07:02.141Z,101808.72
2023-02-22T00:08:03.943Z,101806.16
2023-02-22T00:09:07.180Z,101803.16
2023-02-22T00:10:13.436Z,101809.78
2023-02-22T00:11:16.786Z,101813.31
2023-02-22T00:12:20.680Z,101802.19
2023-02-22T00:13:22.913Z,101809.78
2023-02-22T00:14:27.585Z,101811.69
2023-02-22T00:15:29.419Z,101818.84
2023-02-22T00:16:31.816Z,101811.88
2023-02-22T00:17:34.224Z,101813.50
2023-02-22T00:18:35.998Z,101814.47
2023-02-22T00:19:38.604Z,101818.91
2023-02-22T00:20:41.232Z,101810.94
2023-02-22T00:21:44.948Z,101813.59
2023-02-22T00:22:47.968Z,101817.22
2023-02-22T00:23:49.999Z,101804.50
2023-02-22T00:24:51.797Z,101820.75
2023-02-22T00:25:53.592Z,101820.81
2023-02-22T00:26:56.162Z,101822.53
2023-02-22T00:27:58.308Z,101821.69
2023-02-22T00:29:00.112Z,101824.44
2023-02-22T00:30:03.027Z,101813.13
2023-02-22T00:31:07.709Z,101817.41
2023-02-22T00:32:09.565Z,101825.31
2023-02-22T00:33:13.405Z,101824.44
2023-02-22T00:34:15.232Z,101829.78
2023-02-22T00:35:20.797Z,101821.88
2023-02-22T00:36:22.612Z,101816.13
2023-02-22T00:37:24.755Z,101820.91
2023-02-22T00:38:26.617Z,101830.72
2023-02-22T00:39:28.473Z,101833.47
2023-02-22T00:40:33.243Z,101809.47
2023-02-22T00:41:35.086Z,101829.09
2023-02-22T00:42:38.575Z,101828.47
2023-02-22T00:43:40.514Z,101831.88
2023-02-22T00:44:42.501Z,101834.41
2023-02-22T00:45:47.448Z,101836.25
2023-02-22T00:46:49.803Z,101825.59
2023-02-22T00:47:53.897Z,101813.31
2023-02-22T00:48:55.750Z,101836.34
2023-02-22T00:49:57.720Z,101828.47
2023-02-22T00:50:59.658Z,101839.09
2023-02-22T00:52:01.635Z,101841.00
2023-02-22T00:53:05.083Z,101829.72
2023-02-22T00:54:08.276Z,101841.84
2023-02-22T00:55:15.102Z,101826.50
2023-02-22T00:56:16.881Z,101841.00
2023-02-22T00:57:19.281Z,101844.50
2023-02-22T00:58:21.723Z,101839.72
2023-02-22T00:59:24.018Z,101845.47
2023-02-22T01:00:35.482Z,101842.06
2023-02-22T01:01:37.490Z,101842.72
2023-02-22T01:02:43.682Z,101848.25
2023-02-22T01:03:48.697Z,101832.00
2023-02-22T01:04:51.509Z,101848.25
2023-02-22T01:05:53.431Z,101849.09
2023-02-22T01:06:55.701Z,101845.22
2023-02-22T01:08:00.226Z,101845.78
2023-02-22T01:09:02.815Z,101849.28
2023-02-22T01:10:05.550Z,101852.81
2023-02-22T01:11:07.474Z,101845.22
2023-02-22T01:12:09.249Z,101842.66
2023-02-22T01:13:12.532Z,101852.06
2023-02-22T01:14:14.708Z,101846.75
2023-02-22T01:15:21.831Z,101835.91
2023-02-22T01:16:23.908Z,101848.66
2023-02-22T01:17:26.974Z,101850.34
2023-02-22T01:18:28.940Z,101846.19
2023-02-22T01:19:32.347Z,101858.34
2023-02-22T01:20:34.922Z,101850.56
2023-02-22T01:21:36.777Z,101858.69
2023-02-22T01:22:44.075Z,101859.38
2023-02-22T01:23:46.586Z,101854.16
2023-02-22T01:24:49.685Z,101863.88
2023-02-22T01:25:51.476Z,101859.38
2023-02-22T01:26:53.284Z,101859.66
2023-02-22T01:27:56.000Z,101866.53
2023-02-22T01:28:57.897Z,101863.09
2023-02-22T01:30:00.554Z,101864.81
2023-02-22T01:31:03.492Z,101867.56
2023-02-22T01:32:06.662Z,101863.94
2023-02-22T01:33:09.513Z,101869.25
2023-02-22T01:34:13.072Z,101870.13
2023-02-22T01:35:19.313Z,101866.69
2023-02-22T01:36:22.320Z,101852.06
2023-02-22T01:37:24.201Z,101876.50
2023-02-22T01:38:25.981Z,101874.66
2023-02-22T01:39:29.874Z,101880.88
2023-02-22T01:40:35.233Z,101872.41
2023-02-22T01:41:39.109Z,101877.34
2023-02-22T01:42:40.973Z,101862.81
2023-02-22T01:43:42.761Z,101878.28
2023-02-22T01:44:44.644Z,101873.06
2023-02-22T01:45:53.332Z,101872.19
2023-02-22T01:46:56.960Z,101875.63
2023-02-22T01:48:09.197Z,101880.94
2023-02-22T01:49:11.671Z,101878.41
2023-02-22T01:50:13.681Z,101879.22
2023-02-22T01:51:24.353Z,101864.94
2023-02-22T01:52:26.187Z,101853.22
2023-02-22T01:53:47.561Z,101879.22
2023-02-22T01:54:57.576Z,101877.53
2023-02-22T01:56:00.479Z,101880.00
2023-02-22T01:57:02.252Z,101879.22
2023-02-22T01:58:05.996Z,101880.69
2023-02-22T01:59:12.284Z,101886.47
2023-02-22T02:00:20.242Z,101881.13
2023-02-22T02:01:24.012Z,101889.13
2023-02-22T02:02:26.721Z,101895.41
2023-02-22T02:03:33.637Z,101889.31
2023-02-22T02:04:36.567Z,101874.69
2023-02-22T02:05:39.191Z,101890.19
2023-02-22T02:06:42.412Z,101882.59
2023-02-22T02:07:46.607Z,101889.31
2023-02-22T02:08:59.065Z,101888.56
2023-02-22T02:10:04.516Z,101890.47
2023-02-22T02:11:09.315Z,101890.47
2023-02-22T02:12:13.986Z,101880.88
2023-02-22T02:13:16.298Z,101891.16
2023-02-22T02:14:18.241Z,101895.59
2023-02-22T02:15:25.416Z,101895.91
2023-02-22T02:16:39.060Z,101896.66
2023-02-22T02:17:41.694Z,101888.75
2023-02-22T02:18:43.606Z,101896.47
2023-02-22T02:19:49.859Z,101893.03
2023-02-22T02:21:14.500Z,101897.41
2023-02-22T02:22:43.855Z,101897.88
2023-02-22T02:24:00.275Z,101894.38
2023-02-22T02:25:11.377Z,101893.59
2023-02-22T02:26:19.082Z,101906.03
2023-02-22T02:27:28.524Z,101903.50
2023-02-22T02:29:02.373Z,101900.91
2023-02-22T02:30:04.090Z,101909.47
2023-02-22T02:31:37.942Z,101908.81
2023-02-22T02:32:53.893Z,101916.50
2023-02-22T02:33:58.678Z,101912.31
2023-02-22T02:35:29.063Z,101904.44
2023-02-22T02:36:39.497Z,101910.53
2023-02-22T02:38:08.404Z,101905.97
2023-02-22T02:39:31.012Z,101907.75
2023-02-22T02:40:49.410Z,101901.88
2023-02-22T02:41:52.507Z,101908.91
2023-02-22T02:43:02.230Z,101905.59
2023-02-22T02:44:17.513Z,101910.03
2023-02-22T02:45:28.517Z,101908.34
2023-02-22T02:46:47.189Z,101912.63
2023-02-22T02:47:58.660Z,101899.03
2023-02-22T02:49:08.920Z,101911.88
2023-02-22T02:50:23.278Z,101918.97
2023-02-22T02:51:30.492Z,101918.13
2023-02-22T02:52:35.621Z,101919.94
2023-02-22T02:53:42.145Z,101918.34
2023-02-22T02:54:46.139Z,101926.38
2023-02-22T02:55:49.295Z,101918.53
2023-02-22T02:56:51.603Z,101893.69
2023-02-22T02:57:53.529Z,101926.59
2023-02-22T02:58:55.703Z,101923.16
2023-02-22T02:59:58.374Z,101924.88
2023-02-22T03:01:04.494Z,101926.78
2023-02-22T03:02:15.227Z,101928.47
2023-02-22T03:03:38.518Z,101927.44
2023-02-22T03:05:00.661Z,101914.22
2023-02-22T03:06:13.428Z,101922.78
2023-02-22T03:07:40.455Z,101929.72
2023-02-22T03:08:52.574Z,101930.88
2023-02-22T03:10:14.689Z,101924.59
2023-02-22T03:11:35.977Z,101928.09
2023-02-22T03:12:58.689Z,101927.06
2023-02-22T03:14:10.842Z,101932.66
2023-02-22T03:15:44.141Z,101923.66
2023-02-22T03:16:56.759Z,101923.72
2023-02-22T03:18:01.210Z,101934.56
2023-02-22T03:19:17.644Z,101927.53
2023-02-22T03:20:53.348Z,101923.72
2023-02-22T03:22:21.132Z,101919.34
2023-02-22T03:23:36.038Z,101919.75
2023-02-22T03:24:53.018Z,101908.53
2023-02-22T03:26:05.864Z,101929.31
2023-02-22T03:27:23.033Z,101926.78
2023-02-22T03:28:30.060Z,101932.09
2023-02-22T03:29:35.646Z,101929.63
2023-02-22T03:30:48.340Z,101916.00
2023-02-22T03:32:01.637Z,101930.56
2023-02-22T03:33:42.286Z,101931.91
2023-02-22T03:34:52.741Z,101926.66
2023-02-22T03:36:03.156Z,101928.56
2023-02-22T03:37:19.946Z,101931.16
2023-02-22T03:38:22.326Z,101918.38
2023-02-22T03:39:31.084Z,101920.28
2023-02-22T03:40:43.841Z,101934.19
2023-02-22T03:41:51.551Z,101934.19
2023-02-22T03:43:05.524Z,101942.94
2023-02-22T03:44:17.814Z,101940.34
2023-02-22T03:45:23.405Z,101946.88
2023-02-22T03:46:29.486Z,101949.34
2023-02-22T03:47:40.625Z,101946.63
2023-02-22T03:49:05.244Z,101944.63
2023-02-22T03:50:29.974Z,101926.44
2023-02-22T03:51:31.993Z,101937.41
2023-02-22T03:52:36.617Z,101949.94
2023-02-22T03:53:42.170Z,101946.53
2023-02-22T03:54:44.286Z,101943.13
2023-02-22T03:55:51.683Z,101944.97
2023-02-22T03:56:59.105Z,101939.66
2023-02-22T03:58:06.741Z,101944.03
2023-02-22T03:59:10.920Z,101934.53
2023-02-22T04:00:19.728Z,101927.69
2023-02-22T04:01:23.722Z,101933.66
2023-02-22T04:02:25.642Z,101917.25
2023-02-22T04:03:27.566Z,101908.03
2023-02-22T04:04:29.444Z,101938.78
2023-02-22T04:05:31.831Z,101937.00
2023-02-22T04:06:33.844Z,101939.75
2023-02-22T04:07:37.026Z,101946.88
2023-02-22T04:08:39.190Z,101942.41
2023-02-22T04:09:41.056Z,101941.56
2023-02-22T04:10:44.206Z,101941.56
2023-02-22T04:11:46.469Z,101929.75
2023-02-22T04:12:48.600Z,101945.16
2023-02-22T04:13:50.986Z,101951.31
2023-02-22T04:14:53.509Z,101928.03
2023-02-22T04:15:55.495Z,101948.78
2023-02-22T04:16:57.423Z,101942.88
2023-02-22T04:18:00.230Z,101942.59
2023-02-22T04:19:02.599Z,101948.78
2023-02-22T04:20:06.267Z,101946.13
2023-02-22T04:21:22.790Z,101939.66
2023-02-22T04:22:25.621Z,101940.03
2023-02-22T04:23:28.163Z,101940.69
2023-02-22T04:24:30.693Z,101922.91
2023-02-22T04:25:32.979Z,101944.31
2023-02-22T04:26:45.572Z,101943.47
2023-02-22T04:27:47.475Z,101939.84
2023-02-22T04:28:50.570Z,101945.25
2023-02-22T04:29:54.314Z,101922.72
2023-02-22T04:30:56.653Z,101931.31
2023-02-22T04:31:58.992Z,101935.47
2023-02-22T04:33:00.829Z,101943.47
2023-02-22T04:34:03.642Z,101947.06
2023-02-22T04:35:09.269Z,101945.16
2023-02-22T04:36:11.460Z,101950.50
2023-02-22T04:37:13.562Z,101938.41
2023-02-22T04:38:15.545Z,101948.78
2023-02-22T04:39:17.415Z,101949.72
2023-02-22T04:40:20.394Z,101935.88
2023-02-22T04:41:25.332Z,101929.94
2023-02-22T04:42:28.253Z,101946.13
2023-02-22T04:43:30.475Z,101902.41
2023-02-22T04:44:52.577Z,101947.47
2023-02-22T04:45:54.684Z,101949.44
2023-02-22T04:46:57.577Z,101943.28
2023-02-22T04:47:59.500Z,101948.59
2023-02-22T04:49:01.876Z,101940.38
2023-02-22T04:50:07.738Z,101951.31
2023-02-22T04:51:10.072Z,101940.13
2023-02-22T04:52:16.001Z,101955.81
2023-02-22T04:53:17.962Z,101947.84
2023-02-22T04:54:19.964Z,101950.50
2023-02-22T04:55:22.760Z,101944.69
2023-02-22T04:56:25.261Z,101954.09
2023-02-22T04:57:27.334Z,101945.63
2023-02-22T04:58:29.209Z,101951.44
2023-02-22T04:59:31.053Z,101955.06
2023-02-22T05:00:35.358Z,101956.75
2023-02-22T05:01:38.570Z,101945.69
2023-02-22T05:02:40.515Z,101950.69
2023-02-22T05:03:43.041Z,101955.06
2023-02-22T05:04:45.278Z,101952.38
2023-02-22T05:05:47.154Z,101963.03
2023-02-22T05:06:49.124Z,101950.69
2023-02-22T05:07:51.134Z,101954.19
2023-02-22T05:08:53.451Z,101937.72
2023-02-22T05:09:55.305Z,101951.50
2023-02-22T05:10:57.069Z,101956.00
2023-02-22T05:11:58.835Z,101949.72
2023-02-22T05:13:01.297Z,101950.69
2023-02-22T05:14:04.099Z,101949.72
2023-02-22T05:15:07.998Z,101954.19
2023-02-22T05:16:10.280Z,101952.38
2023-02-22T05:17:12.304Z,101957.72
2023-02-22T05:18:14.897Z,101955.06
2023-02-22T05:19:16.823Z,101961.31
2023-02-22T05:20:30.626Z,101950.69
2023-02-22T05:21:33.839Z,101958.47
2023-02-22T05:22:36.296Z,101956.75
2023-02-22T05:23:38.139Z,101960.44
2023-02-22T05:24:39.950Z,101945.69
2023-02-22T05:25:41.877Z,101952.91
2023-02-22T05:26:44.949Z,101966.72
2023-02-22T05:27:59.503Z,101969.19
2023-02-22T05:29:01.358Z,101964.75
2023-02-22T05:30:03.892Z,101957.13
2023-02-22T05:31:07.466Z,101961.31
2023-02-22T05:32:09.373Z,101952.91
2023-02-22T05:33:11.515Z,101971.09
2023-02-22T05:34:14.417Z,101964.06
2023-02-22T05:35:17.018Z,101964.94
2023-02-22T05:36:18.840Z,101955.69
2023-02-22T05:37:20.703Z,101958.84
2023-02-22T05:38:23.075Z,101965.88
2023-02-22T05:39:24.936Z,101970.44
2023-02-22T05:40:27.896Z,101959.28
2023-02-22T05:41:29.701Z,101971.19
2023-02-22T05:42:31.529Z,101969.47
2023-02-22T05:43:33.487Z,101970.31
2023-02-22T05:44:35.300Z,101955.13
2023-02-22T05:45:37.165Z,101969.47
2023-02-22T05:46:39.285Z,101971.19
2023-02-22T05:47:41.100Z,101973.84
2023-02-22T05:48:42.980Z,101928.59
2023-02-22T05:49:44.736Z,101958.44
2023-02-22T05:50:46.633Z,101982.78
2023-02-22T05:51:48.478Z,101971.47
2023-02-22T05:52:50.419Z,101977.47
2023-02-22T05:53:52.711Z,101972.97
2023-02-22T05:54:54.548Z,101986.28
2023-02-22T05:55:56.404Z,101979.25
2023-02-22T05:56:58.442Z,101971.53
2023-02-22T05:58:01.780Z,101984.50
2023-02-22T05:59:03.651Z,101980.97
2023-02-22T06:00:07.340Z,101988.09
2023-02-22T06:01:14.559Z,101980.00
2023-02-22T06:02:16.508Z,101966.41
2023-02-22T06:03:18.422Z,101975.56
2023-02-22T06:04:20.867Z,101973.84
2023-02-22T06:05:22.881Z,101980.88
2023-02-22T06:06:24.720Z,101974.69
2023-02-22T06:07:27.308Z,101956.91
2023-02-22T06:08:29.113Z,101984.31
2023-02-22T06:09:30.954Z,101984.31
2023-02-22T06:10:33.194Z,101973.66
2023-02-22T06:11:34.967Z,101975.25
2023-02-22T06:12:36.821Z,101976.13
2023-02-22T06:13:39.586Z,101974.25
2023-02-22T06:14:45.945Z,101974.16
2023-02-22T06:15:47.902Z,101976.56
2023-02-22T06:16:54.492Z,101980.81
2023-02-22T06:17:57.870Z,101971.81
2023-02-22T06:19:00.706Z,101978.56
2023-02-22T06:20:03.722Z,101972.38
2023-02-22T06:21:09.043Z,101976.38
2023-02-22T06:22:19.162Z,101973.31
2023-02-22T06:23:21.019Z,101965.53
2023-02-22T06:24:23.888Z,101972.00
2023-02-22T06:25:31.237Z,101971.81
2023-02-22T06:26:33.101Z,101982.09
2023-02-22T06:27:35.225Z,101974.75
2023-02-22T06:28:36.980Z,101962.50
2023-02-22T06:29:38.790Z,101972.56
2023-02-22T06:30:43.012Z,101977.59
2023-02-22T06:31:44.911Z,101975.50
2023-02-22T06:32:46.787Z,101979.69
2023-02-22T06:33:48.558Z,101975.94
2023-02-22T06:34:50.442Z,101973.88
2023-02-22T06:35:52.344Z,101978.06
2023-02-22T06:36:54.149Z,101976.03
2023-02-22T06:37:56.019Z,101970.06
2023-02-22T06:38:57.880Z,101969.66
2023-02-22T06:40:04.849Z,101985.03
2023-02-22T06:41:08.902Z,101974.38
2023-02-22T06:42:10.758Z,101972.94
2023-02-22T06:43:12.550Z,101960.78
2023-02-22T06:44:15.350Z,101971.88
2023-02-22T06:45:18.124Z,101969.00
2023-02-22T06:46:21.261Z,101978.50
2023-02-22T06:47:23.008Z,101957.81
2023-02-22T06:48:24.817Z,101977.28
2023-02-22T06:49:27.502Z,101980.72
2023-02-22T06:50:30.887Z,101965.03
2023-02-22T06:51:38.370Z,101977.75
2023-02-22T06:52:43.058Z,101974.97
2023-02-22T06:53:44.995Z,101980.97
2023-02-22T06:54:46.972Z,101985.34
2023-02-22T06:55:48.811Z,101975.44
2023-02-22T06:56:50.676Z,101975.44
2023-02-22T06:57:53.237Z,101975.31
2023-02-22T06:58:55.014Z,101971.63
2023-02-22T06:59:57.444Z,101974.28
2023-02-22T07:00:59.239Z,101975.13
2023-02-22T07:02:03.992Z,101968.00
2023-02-22T07:03:05.864Z,101971.41
2023-02-22T07:04:07.717Z,101971.41
2023-02-22T07:05:12.547Z,101974.06
2023-02-22T07:06:14.466Z,101974.81
2023-02-22T07:07:16.536Z,101973.97
2023-02-22T07:08:18.357Z,101976.53
2023-02-22T07:09:20.295Z,101967.25
2023-02-22T07:10:27.710Z,101976.53
2023-02-22T07:11:29.473Z,101971.94
2023-02-22T07:12:31.357Z,101966.06
2023-02-22T07:13:33.193Z,101979.00
2023-02-22T07:14:35.253Z,101975.50
2023-02-22T07:15:37.060Z,101978.16
2023-02-22T07:16:39.031Z,101973.03
2023-02-22T07:17:41.347Z,101967.91
2023-02-22T07:18:43.152Z,101960.00
2023-02-22T07:19:44.978Z,101971.19
2023-02-22T07:20:46.922Z,101983.38
2023-02-22T07:21:48.698Z,101980.69
2023-02-22T07:22:50.673Z,101977.19
2023-02-22T07:23:57.196Z,101968.31
2023-02-22T07:25:00.209Z,101973.56
2023-02-22T07:26:03.425Z,101979.75
2023-02-22T07:27:05.251Z,101977.94
2023-02-22T07:28:07.087Z,101977.00
2023-02-22T07:29:08.890Z,101976.13
2023-02-22T07:30:31.234Z,101978.03
2023-02-22T07:31:37.842Z,101980.28
2023-02-22T07:32:39.696Z,101979.53
2023-02-22T07:33:41.515Z,101979.53
2023-02-22T07:34:43.296Z,101981.44
2023-02-22T07:35:48.022Z,101966.06
2023-02-22T07:36:49.951Z,101985.94
2023-02-22T07:37:54.075Z,101981.44
2023-02-22T07:38:57.473Z,101990.19
2023-02-22T07:39:59.295Z,101948.44
2023-02-22T07:41:01.811Z,101970.56
2023-02-22T07:42:04.472Z,101978.25
2023-02-22T07:43:23.893Z,101986.78
2023-02-22T07:44:27.470Z,101990.94
2023-02-22T07:45:35.257Z,101991.06
2023-02-22T07:46:37.078Z,101995.53
2023-02-22T07:47:39.153Z,101979.94
2023-02-22T07:48:41.676Z,101993.81
2023-02-22T07:49:43.480Z,101992.31
2023-02-22T07:50:45.918Z,101993.06
2023-02-22T07:51:47.767Z,101991.28
2023-02-22T07:52:52.306Z,101994.78
2023-02-22T07:53:54.310Z,101997.44
2023-02-22T07:54:56.191Z,102001.06
2023-02-22T07:55:59.114Z,101998.41
2023-02-22T07:57:01.019Z,102000.13
2023-02-22T07:58:05.298Z,102006.41
2023-02-22T07:59:07.062Z,101992.53
2023-02-22T08:00:09.621Z,102004.69
2023-02-22T08:01:14.482Z,101992.31
2023-02-22T08:02:17.799Z,101998.41
2023-02-22T08:03:22.021Z,101994.91
2023-02-22T08:04:23.954Z,102000.13
2023-02-22T08:05:27.953Z,101999.38
2023-02-22T08:06:30.163Z,102002.91
2023-02-22T08:07:32.063Z,101999.28
2023-02-22T08:08:34.594Z,101982.28
2023-02-22T08:09:36.444Z,101992.44
2023-02-22T08:10:38.614Z,101994.03
2023-02-22T08:11:40.389Z,101998.41
2023-02-22T08:12:43.082Z,101994.03
2023-02-22T08:13:44.970Z,101995.84
2023-02-22T08:14:46.818Z,101994.03
2023-02-22T08:15:51.587Z,101996.81
2023-02-22T08:16:53.429Z,101987.19
2023-02-22T08:17:55.818Z,102007.34
2023-02-22T08:18:57.686Z,101996.69
2023-02-22T08:19:59.535Z,102003.84
2023-02-22T08:21:01.354Z,102004.69
2023-02-22T08:22:03.219Z,101995.31
2023-02-22T08:23:06.640Z,101983.13
2023-02-22T08:24:08.424Z,102000.22
2023-02-22T08:25:10.847Z,101997.56
2023-02-22T08:26:17.940Z,101986.44
2023-02-22T08:27:27.800Z,102000.13
2023-02-22T08:28:29.573Z,101994.16
2023-02-22T08:29:33.594Z,101995.94
2023-02-22T08:30:39.031Z,101995.66
2023-02-22T08:31:41.968Z,101985.47
2023-02-22T08:32:46.416Z,101982.16
2023-02-22T08:33:50.031Z,101995.75
2023-02-22T08:34:51.978Z,101981.03
2023-02-22T08:35:54.003Z,101998.41
2023-02-22T08:36:56.075Z,101993.06
2023-02-22T08:38:08.008Z,101986.22
2023-02-22T08:39:10.490Z,101990.19
2023-02-22T08:40:14.849Z,101992.97
2023-02-22T08:41:17.136Z,102001.81
2023-02-22T08:42:19.049Z,101993.81
2023-02-22T08:43:21.708Z,101993.94
2023-02-22T08:44:24.351Z,101994.78
2023-02-22T08:45:26.231Z,101987.75
2023-02-22T08:46:28.405Z,101954.53
2023-02-22T08:47:30.265Z,101984.22
2023-02-22T08:48:32.028Z,101983.38
2023-02-22T08:49:34.007Z,101974.81
2023-02-22T08:50:36.208Z,101989.44
2023-02-22T08:51:38.124Z,101942.44
2023-02-22T08:52:39.932Z,101990.41
2023-02-22T08:53:41.734Z,101989.44
2023-02-22T08:54:45.948Z,101985.28
2023-02-22T08:55:47.860Z,101991.16
2023-02-22T08:56:50.212Z,101984.13
2023-02-22T08:57:52.044Z,101987.66
2023-02-22T08:58:53.862Z,101987.66
2023-02-22T08:59:55.723Z,101986.78
2023-02-22T09:00:58.014Z,101984.22
2023-02-22T09:02:00.228Z,101981.44
2023-02-22T09:03:08.048Z,101985.06
2023-02-22T09:04:09.924Z,101983.16
2023-02-22T09:05:12.079Z,101988.50
2023-02-22T09:06:13.956Z,101977.06
2023-02-22T09:07:16.480Z,101984.13
2023-02-22T09:08:18.389Z,101981.44
2023-02-22T09:09:21.614Z,101992.13
2023-02-22T09:10:27.772Z,101986.78
2023-02-22T09:11:29.626Z,101983.16
2023-02-22T09:12:31.590Z,101970.75
2023-02-22T09:13:33.413Z,101985.81
2023-02-22T09:14:35.527Z,101971.13
2023-02-22T09:15:39.809Z,101984.13
2023-02-22T09:16:41.754Z,101978.69
2023-02-22T09:17:43.845Z,101973.56
2023-02-22T09:18:45.939Z,101983.16
2023-02-22T09:19:47.704Z,101985.81
2023-02-22T09:20:49.537Z,101971.13
2023-02-22T09:21:55.451Z,101967.56
2023-02-22T09:22:57.490Z,101975.91
2023-02-22T09:24:01.400Z,101981.25
2023-02-22T09:25:15.957Z,101960.53
2023-02-22T09:26:18.752Z,101970.50
2023-02-22T09:27:20.660Z,101978.38
2023-02-22T09:28:22.517Z,101973.16
2023-02-22T09:29:27.445Z,101967.91
2023-02-22T09:30:32.709Z,101985.63
2023-02-22T09:31:36.891Z,101960.13
2023-02-22T09:32:38.900Z,101970.38
2023-02-22T09:33:42.060Z,101968.88
2023-02-22T09:34:47.444Z,101974.88
2023-02-22T09:35:50.121Z,101963.66
2023-02-22T09:36:51.929Z,101972.06
2023-02-22T09:37:58.559Z,101964.19
2023-02-22T09:39:00.413Z,101967.63
2023-02-22T09:40:02.363Z,101947.41
2023-02-22T09:41:36.046Z,101968.25
2023-02-22T09:42:45.667Z,101961.03
2023-02-22T09:44:03.998Z,101955.13
2023-02-22T09:45:20.352Z,101961.88
2023-02-22T09:46:25.443Z,101971.56
2023-02-22T09:47:41.834Z,101961.78
2023-02-22T09:49:06.077Z,101954.06
2023-02-22T09:50:17.697Z,101960.81
2023-02-22T09:51:22.202Z,101960.06
2023-02-22T09:52:40.135Z,101953.19
2023-02-22T09:53:46.085Z,101964.53
2023-02-22T09:54:52.503Z,101965.50
2023-02-22T09:55:57.445Z,101968.16
2023-02-22T09:57:02.841Z,101966.53
2023-02-22T09:58:14.160Z,101966.53
2023-02-22T09:59:23.168Z,101959.50
2023-02-22T10:00:32.638Z,101957.91
2023-02-22T10:01:45.058Z,101966.34
2023-02-22T10:03:10.542Z,101971.69
2023-02-22T10:04:22.165Z,101968.59
2023-02-22T10:05:37.943Z,101959.31
2023-02-22T10:06:44.253Z,101978.53
2023-02-22T10:07:58.794Z,101966.16
2023-02-22T10:09:07.748Z,101959.00
2023-02-22T10:10:17.491Z,101966.16
2023-02-22T10:11:48.790Z,101970.41
2023-02-22T10:13:16.724Z,101958.56
2023-02-22T10:14:45.695Z,101960.41
2023-02-22T10:15:58.363Z,101949.59
2023-02-22T10:17:32.666Z,101963.81
2023-02-22T10:19:12.617Z,101958.47
2023-02-22T10:20:14.903Z,101958.34
2023-02-22T10:21:45.729Z,101961.22
2023-02-22T10:23:26.704Z,101955.47
2023-02-22T10:24:39.842Z,101959.97
2023-02-22T10:25:43.816Z,101952.28
2023-02-22T10:26:46.935Z,101950.16
2023-02-22T10:28:00.338Z,101940.66
2023-02-22T10:29:22.841Z,101945.44
2023-02-22T10:30:25.771Z,101957.72
2023-02-22T10:31:35.692Z,101951.66
2023-02-22T10:32:46.649Z,101946.31
2023-02-22T10:34:02.344Z,101954.31
2023-02-22T10:35:11.101Z,101944.41
2023-02-22T10:36:21.564Z,101950.56
2023-02-22T10:37:34.386Z,101947.91
2023-02-22T10:38:36.492Z,101937.44
2023-02-22T10:39:40.200Z,101949.72
2023-02-22T10:40:48.157Z,101944.47
2023-02-22T10:41:54.342Z,101948.84
2023-02-22T10:42:56.152Z,101941.59
2023-02-22T10:43:58.570Z,101938.53
2023-02-22T10:45:00.725Z,101926.38
2023-02-22T10:46:07.172Z,101953.34
2023-02-22T10:47:11.877Z,101951.44
2023-02-22T10:48:19.591Z,101945.13
2023-02-22T10:49:24.522Z,101945.88
2023-02-22T10:50:31.383Z,101942.34
2023-02-22T10:51:33.854Z,101944.81
2023-02-22T10:52:35.624Z,101942.25
2023-02-22T10:53:38.595Z,101939.59
2023-02-22T10:54:45.404Z,101929.22
2023-02-22T10:56:07.771Z,101936.50
2023-02-22T10:57:12.189Z,101930.41
2023-02-22T10:58:14.035Z,101942.72
2023-02-22T10:59:34.273Z,101931.16
2023-02-22T11:00:40.425Z,101927.63
2023-02-22T11:01:42.215Z,101929.25
2023-02-22T11:02:53.786Z,101935.63
2023-02-22T11:04:04.840Z,101930.22
2023-02-22T11:05:06.861Z,101933.84
2023-02-22T11:06:21.845Z,101927.53
2023-02-22T11:07:35.019Z,101918.47
2023-02-22T11:08:36.937Z,101927.31
2023-02-22T11:09:57.401Z,101914.72
2023-02-22T11:11:20.487Z,101918.38
2023-02-22T11:12:39.727Z,101916.13
2023-02-22T11:13:41.570Z,101917.94
2023-02-22T11:14:43.328Z,101911.09
2023-02-22T11:15:45.340Z,101907.69
2023-02-22T11:16:51.410Z,101909.63
2023-02-22T11:17:57.540Z,101909.63
2023-02-22T11:19:11.250Z,101911.31
2023-02-22T11:20:28.701Z,101900.66
2023-02-22T11:21:32.655Z,101911.75
2023-02-22T11:22:42.197Z,101903.00
2023-02-22T11:23:45.085Z,101903.84
2023-02-22T11:24:51.566Z,101892.03
2023-02-22T11:26:06.228Z,101903.97
2023-02-22T11:27:08.988Z,101897.56
2023-02-22T11:28:20.538Z,101888.94
2023-02-22T11:29:26.390Z,101900.22
2023-02-22T11:30:32.078Z,101895.09
2023-02-22T11:31:43.098Z,101895.84
2023-02-22T11:32:57.776Z,101875.69
2023-02-22T11:34:03.497Z,101887.63
2023-02-22T11:35:39.907Z,101884.75
2023-02-22T11:36:43.161Z,101854.78
2023-02-22T11:37:45.068Z,101879.63
2023-02-22T11:38:59.687Z,101872.28
2023-02-22T11:40:22.793Z,101881.00
2023-02-22T11:41:34.996Z,101878.44
2023-02-22T11:42:36.780Z,101869.47
2023-02-22T11:43:38.611Z,101865.22
2023-02-22T11:44:44.081Z,101876.94
2023-02-22T11:46:03.690Z,101864.34
2023-02-22T11:47:12.270Z,101862.66
2023-02-22T11:48:21.080Z,101867.75
2023-02-22T11:49:34.469Z,101862.44
2023-02-22T11:51:03.638Z,101870.97
2023-02-22T11:52:20.680Z,101876.28
2023-02-22T11:53:34.301Z,101874.59
2023-02-22T11:54:36.087Z,101869.25
2023-02-22T11:55:56.049Z,101860.50
2023-02-22T11:57:36.510Z,101858.41
2023-02-22T11:58:41.037Z,101859.13
2023-02-22T12:00:15.561Z,101853.91
2023-02-22T12:01:37.275Z,101856.47
2023-02-22T12:03:00.345Z,101853.81
2023-02-22T12:04:36.413Z,101859.88
2023-02-22T12:06:02.428Z,101861.59
2023-02-22T12:07:15.576Z,101849.44
2023-02-22T12:08:20.663Z,101850.38
2023-02-22T12:09:40.818Z,101846.19
2023-02-22T12:11:03.854Z,101834.47
2023-02-22T12:12:16.931Z,101842.38
2023-02-22T12:13:28.667Z,101825.59
2023-02-22T12:14:39.726Z,101828.50
2023-02-22T12:16:13.833Z,101831.06
2023-02-22T12:17:39.019Z,101833.19
2023-02-22T12:18:42.088Z,101828.81
2023-02-22T12:19:48.916Z,101822.41
2023-02-22T12:21:09.257Z,101819.53
2023-02-22T12:22:19.304Z,101822.94
2023-02-22T12:23:45.309Z,101822.00
2023-02-22T12:25:09.744Z,101833.19
2023-02-22T12:26:20.822Z,101824.44
2023-02-22T12:27:33.932Z,101828.06
2023-02-22T12:29:12.246Z,101830.00
2023-02-22T12:30:23.658Z,101826.38
2023-02-22T12:31:38.850Z,101827.84
2023-02-22T12:33:06.161Z,101828.59
2023-02-22T12:34:22.395Z,101838.41
2023-02-22T12:35:37.425Z,101833.19
2023-02-22T12:36:47.221Z,101833.19
2023-02-22T12:38:04.804Z,101834.91
2023-02-22T12:39:53.558Z,101820.47
2023-02-22T12:41:04.023Z,101832.75